Time;durP1;ratioP1;P1;durP2;ratioP2;P2;SDS_P1;SDS_P2;PMS_P1;PMS_P2;Temp;Humidity;BMP_temperature;BMP_pressure;BME280_temperature;BME280_humidity;BME280_pressure;Samples;Min_cycle;Max_cycle;Signal;HPM_P1;HPM_P2
2021/05/16 00:00:10;;;;;;;2.13;1.40;;;;;;;10.12;98.13;99574.09;5004154;28;20227;-74
2021/05/16 00:02:42;;;;;;;1.53;1.43;;;;;;;10.10;98.54;99578.53;5002453;28;20262;-75
2021/05/16 00:05:23;;;;;;;1.50;1.40;;;;;;;10.05;97.96;99574.34;4976166;28;20217;-72
2021/05/16 00:07:55;;;;;;;1.70;1.23;;;;;;;10.07;98.13;99571.66;4998745;28;20338;-72
2021/05/16 00:10:33;;;;;;;1.40;1.30;;;;;;;10.03;98.37;99572.72;5002412;28;20721;-74
2021/05/16 00:13:03;;;;;;;2.17;1.50;;;;;;;10.05;97.91;99578.69;5005633;28;20204;-73
2021/05/16 00:15:39;;;;;;;1.90;1.30;;;;;;;10.04;97.92;99570.06;5012564;28;20239;-73
2021/05/16 00:18:12;;;;;;;1.30;1.20;;;;;;;10.04;98.21;99569.19;5004790;28;20188;-72
2021/05/16 00:20:58;;;;;;;1.83;1.40;;;;;;;10.04;98.11;99566.56;4998833;28;20248;-73
2021/05/16 00:23:36;;;;;;;2.10;1.53;;;;;;;10.04;97.86;99572.66;5000787;28;20212;-73
2021/05/16 00:26:12;;;;;;;1.30;1.20;;;;;;;10.04;98.12;99563.97;5005837;28;20208;-73
2021/05/16 00:28:47;;;;;;;1.40;1.30;;;;;;;10.04;98.47;99554.44;5002759;28;20254;-73
2021/05/16 00:31:23;;;;;;;1.30;1.20;;;;;;;10.02;98.32;99558.81;5003331;28;20485;-73
2021/05/16 00:34:09;;;;;;;1.27;1.07;;;;;;;10.01;97.67;99557.16;4972356;28;20206;-73
2021/05/16 00:36:43;;;;;;;1.57;1.47;;;;;;;10.01;97.19;99551.94;4994659;28;20259;-72
2021/05/16 00:39:18;;;;;;;1.30;1.20;;;;;;;10.02;96.89;99552.78;4992812;28;20189;-72
2021/05/16 00:41:58;;;;;;;2.00;1.40;;;;;;;10.03;97.44;99551.88;4980024;28;20228;-73
2021/05/16 00:44:35;;;;;;;1.10;1.00;;;;;;;10.02;96.97;99557.97;4992131;28;20673;-73
2021/05/16 00:47:07;;;;;;;2.03;1.10;;;;;;;10.01;96.87;99551.94;5004967;28;20199;-73
2021/05/16 00:49:36;;;;;;;1.67;1.30;;;;;;;10.03;97.30;99552.72;4993111;28;20196;-73
2021/05/16 00:52:14;;;;;;;1.53;1.33;;;;;;;10.03;97.47;99557.94;5001155;28;20213;-73
2021/05/16 00:55:09;;;;;;;1.43;1.23;;;;;;;10.04;97.70;99556.16;5001393;28;20552;-73
2021/05/16 00:57:53;;;;;;;1.20;1.10;;;;;;;10.03;97.25;99557.09;5006403;28;20191;-73
2021/05/16 01:00:34;;;;;;;2.77;1.80;;;;;;;10.02;97.43;99561.44;4993636;28;20255;-73
2021/05/16 01:06:18;;;;;;;1.87;1.30;;;;;;;10.03;98.58;99557.09;4976492;28;20359;-73
2021/05/16 01:09:07;;;;;;;1.30;1.20;;;;;;;10.02;98.35;99557.97;4994662;28;20696;-72
2021/05/16 01:11:50;;;;;;;1.90;1.23;;;;;;;10.02;98.85;99569.25;4991354;28;20328;-73
2021/05/16 01:14:38;;;;;;;1.57;1.47;;;;;;;10.02;98.52;99564.03;4999205;28;20193;-73
2021/05/16 01:17:18;;;;;;;1.40;1.30;;;;;;;10.01;97.64;99564.97;5004903;28;20215;-72
2021/05/16 01:20:03;;;;;;;1.10;1.00;;;;;;;10.01;97.38;99571.94;5005623;28;20611;-72
2021/05/16 01:23:07;;;;;;;1.73;1.40;;;;;;;10.03;96.63;99570.94;4991723;28;20211;-73
2021/05/16 01:25:41;;;;;;;1.10;1.00;;;;;;;10.05;95.03;99570.88;4984390;28;20205;-73
2021/05/16 01:28:16;;;;;;;1.00;1.00;;;;;;;10.05;95.61;99573.50;4990320;28;20199;-72
2021/05/16 01:31:03;;;;;;;1.27;1.17;;;;;;;10.05;95.35;99573.50;4985625;28;20230;-73
2021/05/16 01:33:42;;;;;;;1.47;1.37;;;;;;;10.01;96.42;99575.38;4999807;28;20279;-73
2021/05/16 01:36:27;;;;;;;2.10;1.20;;;;;;;9.94;97.83;99570.50;5003438;28;20203;-73
2021/05/16 01:39:16;;;;;;;1.67;1.33;;;;;;;9.93;97.78;99576.59;5011796;28;20213;-72
2021/05/16 01:41:58;;;;;;;2.40;1.40;;;;;;;9.92;97.06;99577.50;5005424;28;20313;-72
2021/05/16 01:44:33;;;;;;;1.30;1.20;;;;;;;9.88;98.03;99581.13;4984429;28;20308;-73
2021/05/16 01:47:08;;;;;;;1.83;1.27;;;;;;;9.83;98.20;99583.91;5010065;28;20199;-74
2021/05/16 01:50:05;;;;;;;1.10;1.00;;;;;;;9.81;98.21;99586.56;4986301;28;20269;-74
2021/05/16 01:52:39;;;;;;;1.00;1.00;;;;;;;9.82;97.61;99592.66;5006379;28;20224;-73
2021/05/16 01:55:15;;;;;;;1.20;1.10;;;;;;;9.81;97.61;99603.94;4998530;28;20199;-72
2021/05/16 01:57:58;;;;;;;1.30;1.20;;;;;;;9.82;98.13;99598.69;5003712;28;20657;-72
2021/05/16 02:01:03;;;;;;;2.00;1.27;;;;;;;9.79;98.28;99603.16;5000349;28;20278;-74
2021/05/16 02:03:42;;;;;;;1.33;1.23;;;;;;;9.76;98.32;99609.34;4992566;28;20823;-72
2021/05/16 02:06:23;;;;;;;1.00;1.00;;;;;;;9.70;99.02;99601.78;4997869;28;20252;-72
2021/05/16 02:12:57;;;;;;;1.57;1.47;;;;;;;9.53;98.98;99596.38;5005251;28;20634;-73
2021/05/16 02:15:44;;;;;;;1.40;1.23;;;;;;;9.45;99.28;99594.91;4982083;28;20181;-72
2021/05/16 02:18:27;;;;;;;1.70;1.30;;;;;;;9.38;99.81;99590.84;5010030;28;20234;-73
2021/05/16 02:21:09;;;;;;;2.77;1.40;;;;;;;9.32;100.00;99595.41;5001268;28;20213;-73
2021/05/16 02:23:52;;;;;;;1.30;1.20;;;;;;;9.24;100.00;99587.91;4991261;28;20199;-73
2021/05/16 02:26:37;;;;;;;2.27;1.50;;;;;;;9.13;100.00;99585.72;4985329;28;20205;-72
2021/05/16 02:29:13;;;;;;;1.60;1.50;;;;;;;9.09;100.00;99581.50;4985206;28;20225;-73
2021/05/16 02:31:54;;;;;;;1.83;1.47;;;;;;;9.01;100.00;99579.19;5012697;28;20253;-73
2021/05/16 02:34:26;;;;;;;1.73;1.63;;;;;;;8.95;100.00;99589.81;4987091;28;20207;-73
2021/05/16 02:37:02;;;;;;;1.37;1.27;;;;;;;8.88;100.00;99594.41;5008799;28;20209;-72
2021/05/16 02:39:47;;;;;;;2.50;1.70;;;;;;;8.82;100.00;99596.34;4975726;28;20778;-73
2021/05/16 02:42:24;;;;;;;2.00;1.77;;;;;;;8.71;100.00;99602.78;4966388;28;20228;-72
2021/05/16 02:45:00;;;;;;;2.43;1.87;;;;;;;8.60;100.00;99598.84;4985403;28;20348;-72
2021/05/16 02:47:34;;;;;;;1.50;1.40;;;;;;;8.57;100.00;99604.16;4954475;28;20209;-73
2021/05/16 02:50:17;;;;;;;1.47;1.37;;;;;;;8.47;100.00;99608.81;4981120;28;20224;-73
2021/05/16 02:53:03;;;;;;;1.77;1.60;;;;;;;8.37;100.00;99610.81;4952237;28;20296;-73
2021/05/16 02:55:37;;;;;;;2.63;1.57;;;;;;;8.32;100.00;99618.78;4980867;28;20225;-73
2021/05/16 02:58:19;;;;;;;1.63;1.53;;;;;;;8.26;100.00;99618.97;4967613;28;20279;-73
2021/05/16 03:00:54;;;;;;;2.13;1.70;;;;;;;8.25;100.00;99614.69;4963389;28;20229;-73
2021/05/16 03:03:38;;;;;;;4.03;2.00;;;;;;;8.18;100.00;99612.31;4950507;28;20257;-73
2021/05/16 03:06:26;;;;;;;1.93;1.63;;;;;;;8.06;100.00;99608.41;4965391;28;20268;-73
2021/05/16 03:09:10;;;;;;;1.93;1.83;;;;;;;8.02;100.00;99610.25;4985602;28;20260;-72
2021/05/16 03:11:48;;;;;;;2.73;1.80;;;;;;;7.96;100.00;99611.25;4991955;28;20220;-73
2021/05/16 03:14:40;;;;;;;1.63;1.53;;;;;;;7.89;100.00;99611.50;4992053;28;20192;-73
2021/05/16 03:17:19;;;;;;;2.20;2.00;;;;;;;7.84;100.00;99606.44;4977388;28;20205;-74
2021/05/16 03:20:09;;;;;;;3.20;1.63;;;;;;;7.75;100.00;99612.78;4968465;28;20221;-73
2021/05/16 03:22:53;;;;;;;2.17;1.60;;;;;;;7.73;100.00;99605.94;4968376;28;20210;-73
2021/05/16 03:25:30;;;;;;;2.17;1.80;;;;;;;7.69;100.00;99612.97;4981733;28;20217;-74
2021/05/16 03:28:14;;;;;;;2.70;2.10;;;;;;;7.60;100.00;99610.66;4964665;28;20205;-73
2021/05/16 03:31:01;;;;;;;2.17;1.97;;;;;;;7.55;100.00;99620.34;4986559;28;20244;-72
2021/05/16 03:33:45;;;;;;;2.10;1.50;;;;;;;7.61;100.00;99620.13;4981780;28;20194;-73
2021/05/16 03:36:24;;;;;;;1.83;1.73;;;;;;;7.67;100.00;99619.09;4986660;28;20201;-72
2021/05/16 03:39:08;;;;;;;2.00;1.80;;;;;;;7.70;100.00;99619.84;4994061;28;20682;-73
2021/05/16 03:41:40;;;;;;;1.90;1.80;;;;;;;7.67;100.00;99613.91;4983649;28;20326;-74
2021/05/16 03:44:15;;;;;;;1.70;1.60;;;;;;;7.72;100.00;99612.03;4973323;28;20197;-72
2021/05/16 03:47:04;;;;;;;2.30;2.10;;;;;;;7.73;100.00;99614.56;4969634;28;20197;-73
2021/05/16 03:49:49;;;;;;;2.03;1.73;;;;;;;7.77;100.00;99615.31;4969747;28;20662;-72
2021/05/16 03:52:21;;;;;;;2.40;1.90;;;;;;;7.88;100.00;99613.28;4964934;28;20206;-72
2021/05/16 03:55:05;;;;;;;2.20;1.93;;;;;;;7.92;100.00;99620.06;4946328;28;20201;-72
2021/05/16 03:57:46;;;;;;;1.90;1.80;;;;;;;7.99;100.00;99610.34;4955365;28;20205;-73
2021/05/16 04:00:22;;;;;;;2.10;1.80;;;;;;;8.11;100.00;99612.53;4977645;28;20887;-73
2021/05/16 04:03:06;;;;;;;2.53;2.33;;;;;;;8.19;100.00;99614.88;4972152;28;20536;-72
2021/05/16 04:06:07;;;;;;;;;;;;;;;;;;;;;
2021/05/16 04:08:43;;;;;;;4.67;2.23;;;;;;;8.48;100.00;99613.97;4954917;28;20698;-72
2021/05/16 04:11:20;;;;;;;2.10;1.67;;;;;;;8.56;100.00;99624.09;4962418;28;20221;-73
2021/05/16 04:14:17;;;;;;;2.37;2.10;;;;;;;8.65;100.00;99620.31;4959966;28;20280;-72
2021/05/16 04:17:11;;;;;;;2.00;1.80;;;;;;;8.76;100.00;99630.34;4973859;28;20566;-74
2021/05/16 04:19:54;;;;;;;2.47;2.00;;;;;;;8.80;100.00;99630.19;4961323;28;20674;-72
2021/05/16 04:22:25;;;;;;;2.17;1.90;;;;;;;8.86;100.00;99632.56;4978423;28;20291;-73
2021/05/16 04:25:00;;;;;;;3.20;1.80;;;;;;;8.92;100.00;99628.94;4978036;28;20219;-73
2021/05/16 04:27:40;;;;;;;3.53;1.90;;;;;;;8.98;100.00;99631.28;4979304;28;20285;-73
2021/05/16 04:30:14;;;;;;;2.17;1.67;;;;;;;9.02;100.00;99635.50;4981091;28;20226;-74
2021/05/16 04:32:48;;;;;;;1.80;1.70;;;;;;;9.09;100.00;99633.50;4978467;28;20234;-73
2021/05/16 04:35:31;;;;;;;1.90;1.70;;;;;;;9.19;100.00;99636.66;4983785;28;20189;-73
2021/05/16 04:41:10;;;;;;;3.30;1.60;;;;;;;9.40;100.00;99632.41;4992222;28;20274;-73
2021/05/16 04:43:46;;;;;;;1.90;1.40;;;;;;;9.45;100.00;99636.53;5007001;28;20212;-73
2021/05/16 04:46:23;;;;;;;2.90;1.40;;;;;;;9.51;99.84;99632.00;4983294;28;20297;-72
2021/05/16 04:49:07;;;;;;;1.50;1.40;;;;;;;9.55;99.49;99634.44;5004312;28;20253;-73
2021/05/16 04:51:59;;;;;;;1.30;1.20;;;;;;;9.56;98.21;99633.53;5002579;28;20236;-73
2021/05/16 04:54:33;;;;;;;1.57;1.20;;;;;;;9.63;97.93;99631.53;4969790;28;20250;-75
2021/05/16 04:57:06;;;;;;;2.20;1.20;;;;;;;9.72;98.24;99630.34;4977626;28;20231;-73
2021/05/16 04:59:38;;;;;;;1.60;1.30;;;;;;;9.80;97.31;99633.50;5004280;28;20213;-73
2021/05/16 05:02:32;;;;;;;1.00;0.90;;;;;;;9.94;97.19;99639.03;5000782;28;20223;-73
2021/05/16 05:05:18;;;;;;;1.53;0.87;;;;;;;10.01;96.64;99645.69;4987563;28;20221;-73
2021/05/16 05:08:00;;;;;;;1.10;1.00;;;;;;;10.08;95.71;99642.81;5004470;28;20196;-73
2021/05/16 05:13:33;;;;;;;1.37;1.10;;;;;;;10.18;94.61;99634.59;5000357;28;20313;-75
2021/05/16 05:16:05;;;;;;;0.90;0.90;;;;;;;10.28;95.02;99631.63;4991482;28;20210;-74
2021/05/16 05:18:38;;;;;;;0.93;0.83;;;;;;;10.34;95.23;99634.00;5002895;28;20752;-74
2021/05/16 05:21:11;;;;;;;1.17;0.90;;;;;;;10.45;94.10;99638.75;5002024;28;20235;-74
2021/05/16 05:23:46;;;;;;;1.70;0.80;;;;;;;10.50;93.55;99647.25;5000066;28;20210;-74
2021/05/16 05:26:40;;;;;;;2.50;0.97;;;;;;;10.55;93.69;99645.28;4998042;28;20209;-74
2021/05/16 05:29:17;;;;;;;0.97;0.70;;;;;;;10.64;93.33;99644.06;4998434;28;20194;-74
2021/05/16 05:31:52;;;;;;;0.93;0.70;;;;;;;10.63;92.24;99648.44;5006086;28;20323;-72
2021/05/16 05:37:25;;;;;;;0.73;0.73;;;;;;;10.84;92.38;99649.28;4995367;28;20214;-73
2021/05/16 05:40:10;;;;;;;0.80;0.80;;;;;;;10.92;92.10;99646.34;5006177;28;20266;-74
2021/05/16 05:45:44;;;;;;;0.80;0.80;;;;;;;10.99;90.49;99650.38;5006197;28;20975;-73
2021/05/16 05:48:42;;;;;;;1.20;0.90;;;;;;;10.98;91.10;99656.53;5006935;28;20188;-72
2021/05/16 05:51:15;;;;;;;2.37;0.93;;;;;;;10.96;90.72;99655.75;4971413;28;20251;-73
2021/05/16 05:53:56;;;;;;;1.17;0.80;;;;;;;10.97;91.58;99653.06;4986468;28;20197;-72
2021/05/16 05:56:36;;;;;;;1.10;1.00;;;;;;;10.94;90.57;99655.81;4999717;28;20707;-73
2021/05/16 05:59:19;;;;;;;2.03;1.00;;;;;;;10.99;91.23;99653.00;4997112;28;20229;-74
2021/05/16 06:01:54;;;;;;;1.07;0.80;;;;;;;11.08;91.01;99649.13;4998896;28;20290;-73
2021/05/16 06:04:20;;;;;;;1.57;0.80;;;;;;;11.18;90.63;99655.66;4995459;28;20293;-74
2021/05/16 06:06:46;;;;;;;2.00;0.87;;;;;;;11.23;89.54;99650.25;5001909;28;20236;-73
2021/05/16 06:09:12;;;;;;;1.20;0.60;;;;;;;11.27;89.03;99655.22;5006348;28;20206;-73
2021/05/16 06:11:38;;;;;;;0.97;0.80;;;;;;;11.41;89.76;99659.84;5003296;28;20304;-73
2021/05/16 06:14:04;;;;;;;1.83;0.67;;;;;;;11.52;89.62;99654.13;5000065;28;20869;-73
2021/05/16 06:16:30;;;;;;;1.00;0.90;;;;;;;11.59;88.77;99654.69;4998784;28;20209;-72
2021/05/16 06:18:57;;;;;;;0.60;0.60;;;;;;;11.65;88.02;99655.28;4997033;28;20198;-74
2021/05/16 06:21:23;;;;;;;1.10;0.70;;;;;;;11.69;87.46;99653.38;4983336;28;20246;-73
2021/05/16 06:24:01;;;;;;;1.33;0.60;;;;;;;11.76;87.58;99652.16;5005158;28;20209;-72
2021/05/16 06:26:27;;;;;;;2.00;0.80;;;;;;;11.86;86.45;99661.28;5001496;28;20215;-73
2021/05/16 06:28:53;;;;;;;0.77;0.70;;;;;;;11.98;85.94;99659.03;5000585;28;20205;-74
2021/05/16 06:31:20;;;;;;;1.37;0.70;;;;;;;11.88;85.68;99661.19;5000660;28;20247;-73
2021/05/16 06:33:47;;;;;;;1.80;0.70;;;;;;;11.91;84.87;99664.56;5000887;28;20231;-73
2021/05/16 06:36:13;;;;;;;0.87;0.80;;;;;;;11.78;83.64;99670.38;4985143;28;20266;-73
2021/05/16 06:38:39;;;;;;;0.80;0.80;;;;;;;11.66;83.70;99658.72;5009314;28;20207;-73
2021/05/16 06:41:05;;;;;;;0.80;0.70;;;;;;;11.69;84.65;99659.44;4997444;28;20224;-73
2021/05/16 06:43:31;;;;;;;0.70;0.60;;;;;;;11.68;85.02;99655.16;5009235;28;20613;-73
2021/05/16 06:45:57;;;;;;;0.90;0.80;;;;;;;11.80;85.51;99653.72;4998724;28;20250;-72
2021/05/16 06:48:26;;;;;;;2.83;0.70;;;;;;;12.08;84.40;99649.84;4992982;28;20277;-73
2021/05/16 06:50:53;;;;;;;0.50;0.50;;;;;;;12.45;84.95;99646.28;5003230;28;20223;-75
2021/05/16 06:53:19;;;;;;;0.63;0.63;;;;;;;12.66;82.74;99652.22;5003912;28;20192;-73
2021/05/16 06:55:46;;;;;;;1.53;0.77;;;;;;;12.76;81.36;99663.06;4985980;28;20604;-73
2021/05/16 06:58:12;;;;;;;1.73;0.73;;;;;;;12.79;82.28;99659.47;4990442;28;20549;-74
2021/05/16 07:00:38;;;;;;;0.63;0.60;;;;;;;13.11;82.38;99657.78;4984328;28;20231;-74
2021/05/16 07:03:05;;;;;;;0.87;0.60;;;;;;;13.23;80.71;99662.38;4982918;28;20216;-73
2021/05/16 07:05:31;;;;;;;0.93;0.53;;;;;;;13.17;77.02;99672.31;4995869;28;20227;-73
2021/05/16 07:07:58;;;;;;;1.00;0.50;;;;;;;13.18;80.04;99671.41;4996665;28;20262;-74
2021/05/16 07:10:25;;;;;;;1.93;0.70;;;;;;;13.13;79.79;99658.56;4993448;28;20225;-73
2021/05/16 07:12:51;;;;;;;0.77;0.50;;;;;;;13.01;78.79;99670.50;5006684;28;20664;-72
2021/05/16 07:15:17;;;;;;;0.70;0.60;;;;;;;12.91;79.26;99671.03;5001350;28;20224;-72
2021/05/16 07:17:43;;;;;;;0.70;0.50;;;;;;;12.93;79.12;99675.28;5006954;28;20199;-72
2021/05/16 07:20:10;;;;;;;0.50;0.50;;;;;;;12.90;78.95;99672.81;5000776;28;20235;-73
2021/05/16 07:22:36;;;;;;;0.77;0.50;;;;;;;12.95;78.91;99669.97;5005821;28;20708;-73
2021/05/16 07:25:05;;;;;;;2.07;0.73;;;;;;;12.96;78.55;99674.28;5000074;28;20245;-72
2021/05/16 07:27:31;;;;;;;0.80;0.70;;;;;;;12.90;78.42;99672.81;4984966;28;20201;-72
2021/05/16 07:29:57;;;;;;;0.93;0.50;;;;;;;13.05;79.88;99663.31;4997038;28;20225;-73
2021/05/16 07:32:23;;;;;;;0.83;0.60;;;;;;;13.07;77.23;99662.34;4995424;28;20205;-72
2021/05/16 07:34:49;;;;;;;0.60;0.60;;;;;;;13.14;78.54;99669.84;4995433;28;20209;-72
2021/05/16 07:37:15;;;;;;;1.80;0.60;;;;;;;13.22;78.66;99665.09;4988460;28;20303;-72
2021/05/16 07:39:42;;;;;;;0.83;0.70;;;;;;;13.08;78.18;99666.63;5001408;28;20200;-72
2021/05/16 07:42:09;;;;;;;1.00;0.70;;;;;;;13.12;79.65;99666.47;5000805;28;20590;-74
2021/05/16 07:44:35;;;;;;;0.70;0.70;;;;;;;13.10;77.77;99661.31;5006220;28;20592;-74
2021/05/16 07:47:01;;;;;;;1.47;0.60;;;;;;;13.15;78.15;99672.41;5005288;28;20211;-72
2021/05/16 07:49:27;;;;;;;0.70;0.70;;;;;;;13.09;78.33;99662.25;5006702;28;20232;-73
2021/05/16 07:51:53;;;;;;;0.80;0.80;;;;;;;13.13;78.37;99669.03;5005006;28;20221;-73
2021/05/16 07:54:19;;;;;;;0.97;0.90;;;;;;;13.37;78.78;99666.09;5002384;28;20228;-74
2021/05/16 07:56:45;;;;;;;0.70;0.70;;;;;;;13.70;78.49;99666.06;4999787;28;20232;-73
2021/05/16 07:59:12;;;;;;;1.37;0.77;;;;;;;13.83;76.22;99667.06;4990177;28;20362;-73
2021/05/16 08:01:38;;;;;;;2.40;0.60;;;;;;;13.70;75.99;99666.06;5004747;28;20224;-73
2021/05/16 08:04:04;;;;;;;0.93;0.73;;;;;;;13.51;74.36;99663.59;5002072;28;20280;-74
2021/05/16 08:06:30;;;;;;;2.27;0.93;;;;;;;13.66;75.43;99664.50;5002321;28;20745;-73
2021/05/16 08:08:56;;;;;;;2.33;2.00;;;;;;;13.79;74.19;99660.31;4992382;28;20253;-73
2021/05/16 08:11:22;;;;;;;3.97;3.27;;;;;;;13.74;73.29;99664.13;5003222;28;20220;-74
2021/05/16 08:13:48;;;;;;;1.33;0.80;;;;;;;13.75;75.28;99663.16;5004795;28;20296;-75
2021/05/16 08:16:15;;;;;;;0.90;0.33;;;;;;;13.58;73.35;99667.56;4994895;28;20201;-73
2021/05/16 08:18:41;;;;;;;0.80;0.60;;;;;;;13.47;72.58;99672.50;5005372;28;20216;-73
2021/05/16 08:21:07;;;;;;;0.67;0.67;;;;;;;13.23;73.21;99666.78;4991057;28;20237;-73
2021/05/16 08:23:33;;;;;;;0.50;0.50;;;;;;;13.08;73.09;99666.63;4999700;28;20684;-72
2021/05/16 08:26:01;;;;;;;0.50;0.50;;;;;;;13.40;72.70;99666.78;4999117;28;20283;-72
2021/05/16 08:28:27;;;;;;;0.50;0.50;;;;;;;13.85;73.95;99659.13;5003943;28;20728;-73
2021/05/16 08:30:53;;;;;;;0.53;0.53;;;;;;;14.27;73.96;99659.44;5001722;28;20304;-73
2021/05/16 08:33:20;;;;;;;0.37;0.37;;;;;;;14.69;72.30;99674.50;5002586;28;20201;-74
2021/05/16 08:35:47;;;;;;;0.60;0.50;;;;;;;14.60;69.65;99677.69;4997457;28;20299;-73
2021/05/16 08:38:13;;;;;;;0.33;0.30;;;;;;;14.41;69.55;99677.00;5001216;28;20657;-73
2021/05/16 08:40:39;;;;;;;0.90;0.43;;;;;;;14.27;69.86;99677.78;5000955;28;20280;-73
2021/05/16 08:43:16;;;;;;;0.50;0.50;;;;;;;14.35;71.26;99671.19;5007402;28;20304;-74
2021/05/16 08:45:58;;;;;;;2.00;0.77;;;;;;;14.24;68.91;99678.78;4997157;28;20215;-74
2021/05/16 08:48:39;;;;;;;2.53;1.50;;;;;;;14.11;70.41;99680.44;5005262;28;20204;-73
2021/05/16 08:51:17;;;;;;;1.33;0.73;;;;;;;14.14;70.92;99681.09;4998226;28;20569;-75
2021/05/16 08:53:57;;;;;;;1.23;0.73;;;;;;;14.29;69.74;99683.78;5006417;28;20205;-73
2021/05/16 08:56:43;;;;;;;1.80;1.10;;;;;;;14.56;70.14;99684.84;5003191;28;20183;-72
2021/05/16 08:59:28;;;;;;;6.67;3.47;;;;;;;14.84;69.51;99679.78;4992074;28;20313;-73
2021/05/16 09:02:05;;;;;;;1.80;1.17;;;;;;;15.11;71.10;99685.19;5003051;28;20196;-73
2021/05/16 09:04:41;;;;;;;1.63;0.90;;;;;;;15.41;66.87;99682.50;4999487;28;20700;-74
2021/05/16 09:07:31;;;;;;;0.70;0.70;;;;;;;15.43;67.27;99682.41;4998759;28;20203;-73
2021/05/16 09:10:02;;;;;;;1.20;0.80;;;;;;;15.05;66.49;99696.06;5000262;28;20625;-73
2021/05/16 09:12:40;;;;;;;5.50;3.00;;;;;;;14.70;67.09;99693.72;5002398;28;20231;-74
2021/05/16 09:15:30;;;;;;;3.77;2.80;;;;;;;14.61;69.22;99694.25;5001997;28;20627;-73
2021/05/16 09:18:01;;;;;;;3.23;2.10;;;;;;;14.42;69.06;99694.41;4999215;28;20204;-74
2021/05/16 09:20:46;;;;;;;3.10;2.00;;;;;;;14.08;67.48;99705.03;5002857;28;20212;-73
2021/05/16 09:23:23;;;;;;;4.30;1.50;;;;;;;13.92;67.71;99704.19;5005502;28;20221;-73
2021/05/16 09:26:13;;;;;;;2.57;1.60;;;;;;;13.82;69.30;99701.19;4986798;28;20473;-73
2021/05/16 09:28:53;;;;;;;5.60;3.87;;;;;;;13.96;69.46;99701.28;4991847;28;20220;-73
2021/05/16 09:31:36;;;;;;;4.13;2.77;;;;;;;14.06;69.46;99701.66;5004920;28;20261;-72
2021/05/16 09:34:17;;;;;;;2.87;1.20;;;;;;;14.21;68.65;99697.31;4998226;28;20273;-72
2021/05/16 09:37:06;;;;;;;2.07;1.47;;;;;;;14.26;68.35;99703.16;5001486;28;20566;-73
2021/05/16 09:39:40;;;;;;;2.83;1.73;;;;;;;14.74;70.25;99696.09;5003253;28;20315;-72
2021/05/16 09:42:20;;;;;;;4.17;2.30;;;;;;;15.16;65.15;99706.75;4982934;28;20212;-72
2021/05/16 09:45:10;;;;;;;2.57;1.83;;;;;;;15.43;64.57;99699.00;4982214;28;21263;-73
2021/05/16 09:47:52;;;;;;;2.37;1.80;;;;;;;15.55;62.39;99704.44;4958042;28;20779;-73
2021/05/16 09:50:48;;;;;;;1.33;1.20;;;;;;;15.35;64.76;99703.88;4978341;28;20244;-73
2021/05/16 09:53:25;;;;;;;3.77;1.73;;;;;;;15.24;64.71;99706.31;4981721;28;20303;-73
2021/05/16 09:56:24;;;;;;;1.47;1.37;;;;;;;15.18;65.38;99698.78;4982762;28;20612;-73
2021/05/16 09:59:22;;;;;;;2.27;1.30;;;;;;;15.22;66.65;99697.69;4982147;28;20205;-74
2021/05/16 10:02:29;;;;;;;1.53;0.60;;;;;;;15.02;68.57;99689.22;4980094;28;20231;-73
2021/05/16 10:08:17;;;;;;;4.80;0.80;;;;;;;14.24;73.41;99685.81;4981873;28;20218;-73
2021/05/16 10:11:25;;;;;;;3.90;0.77;;;;;;;13.91;79.21;99686.75;4973014;28;20232;-74
2021/05/16 10:14:07;;;;;;;1.90;0.80;;;;;;;13.42;73.80;99687.63;4984658;28;20192;-73
2021/05/16 10:17:34;;;;;;;0.70;0.60;;;;;;;13.42;75.97;99690.22;4970017;28;21202;-75
2021/05/16 10:20:14;;;;;;;1.43;0.70;;;;;;;13.95;77.26;99681.28;4989589;28;20216;-76
2021/05/16 10:22:57;;;;;;;1.67;0.90;;;;;;;14.62;76.99;99674.97;4982223;28;20527;-76
2021/05/16 10:25:42;;;;;;;1.63;0.93;;;;;;;15.11;75.67;99670.28;4969621;28;20575;-73
2021/05/16 10:28:21;;;;;;;4.37;1.27;;;;;;;15.31;66.55;99687.44;4984299;28;20215;-74
2021/05/16 10:31:06;;;;;;;3.60;1.00;;;;;;;15.60;71.32;99674.34;4963893;28;20224;-75
2021/05/16 10:33:42;;;;;;;1.73;1.10;;;;;;;15.94;69.96;99680.13;4984984;28;20284;-72
2021/05/16 10:36:48;;;;;;;1.67;0.80;;;;;;;16.05;69.24;99679.44;4987258;28;20238;-74
2021/05/16 10:39:49;;;;;;;3.03;0.90;;;;;;;16.08;64.15;99681.88;4987233;28;20275;-72
2021/05/16 10:42:30;;;;;;;3.13;0.93;;;;;;;16.39;65.40;99675.47;4981380;28;20211;-74
2021/05/16 10:45:12;;;;;;;1.80;0.80;;;;;;;16.72;66.67;99670.72;4985456;28;20205;-74
2021/05/16 10:48:10;;;;;;;2.33;1.00;;;;;;;16.71;61.94;99676.91;4983211;28;20208;-74
2021/05/16 10:50:54;;;;;;;2.17;0.90;;;;;;;16.56;61.86;99663.81;4983731;28;20213;-73
2021/05/16 10:53:49;;;;;;;3.87;1.07;;;;;;;16.38;65.32;99658.00;4975835;28;20248;-73
2021/05/16 10:56:27;;;;;;;2.80;0.83;;;;;;;16.14;64.28;99660.44;4983245;28;20195;-73
2021/05/16 10:59:01;;;;;;;3.57;1.27;;;;;;;16.27;64.89;99655.25;4992324;28;20208;-74
2021/05/16 11:01:40;;;;;;;1.10;1.00;;;;;;;16.52;66.61;99651.00;4984245;28;20225;-73
2021/05/16 11:04:38;;;;;;;1.80;0.80;;;;;;;16.76;61.78;99656.38;4995069;28;20194;-74
2021/05/16 11:07:11;;;;;;;4.07;1.00;;;;;;;17.04;59.09;99658.03;4972741;28;20311;-75
2021/05/16 11:09:41;;;;;;;2.40;0.87;;;;;;;16.80;60.35;99648.19;4974724;28;20275;-73
2021/05/16 11:12:35;;;;;;;1.03;0.60;;;;;;;17.10;60.73;99649.72;4977313;28;20198;-75
2021/05/16 11:15:33;;;;;;;1.77;0.80;;;;;;;17.10;58.59;99640.97;4985304;28;20198;-74
2021/05/16 11:18:19;;;;;;;1.20;0.70;;;;;;;16.82;62.21;99648.94;4979584;28;20197;-73
2021/05/16 11:21:00;;;;;;;1.27;0.70;;;;;;;16.64;59.49;99651.00;4980584;28;20248;-74
2021/05/16 11:23:35;;;;;;;2.43;0.80;;;;;;;16.97;60.36;99638.31;4973346;28;20740;-74
2021/05/16 11:26:24;;;;;;;0.80;0.70;;;;;;;17.17;59.71;99650.97;4971930;28;20209;-73
2021/05/16 11:29:00;;;;;;;1.00;0.80;;;;;;;17.33;60.54;99644.66;4980320;28;20215;-74
2021/05/16 11:31:33;;;;;;;2.97;0.90;;;;;;;17.48;57.08;99646.19;4985446;28;20231;-74
2021/05/16 11:34:12;;;;;;;1.67;0.70;;;;;;;17.80;58.18;99645.72;4983511;28;20229;-74
2021/05/16 11:36:50;;;;;;;0.67;0.60;;;;;;;17.64;55.38;99645.94;4984932;28;20228;-76
2021/05/16 11:39:30;;;;;;;1.23;0.90;;;;;;;17.75;54.67;99650.47;4980425;28;20194;-73
2021/05/16 11:41:59;;;;;;;1.23;0.60;;;;;;;17.45;56.05;99637.66;4997259;28;20279;-73
2021/05/16 11:44:42;;;;;;;1.23;0.60;;;;;;;17.53;56.56;99628.25;5003714;28;20203;-73
2021/05/16 11:47:41;;;;;;;2.73;0.90;;;;;;;17.12;55.07;99634.66;5006496;28;20217;-74
2021/05/16 11:50:49;;;;;;;1.10;0.60;;;;;;;17.33;57.34;99629.69;4988483;28;20296;-73
2021/05/16 11:53:26;;;;;;;1.07;0.53;;;;;;;17.51;52.59;99637.25;5001261;28;20201;-75
2021/05/16 11:56:14;;;;;;;0.50;0.50;;;;;;;17.25;51.75;99633.81;5003781;28;20204;-72
2021/05/16 11:58:54;;;;;;;1.13;0.73;;;;;;;17.66;54.17;99630.88;5000810;28;20564;-75
2021/05/16 12:01:49;;;;;;;1.40;0.80;;;;;;;17.91;52.45;99635.25;4998552;28;20216;-75
2021/05/16 12:04:29;;;;;;;1.07;0.60;;;;;;;18.12;50.07;99627.59;4999574;28;20209;-73
2021/05/16 12:07:07;;;;;;;1.47;0.60;;;;;;;18.37;48.93;99635.50;5003303;28;20716;-74
2021/05/16 12:09:46;;;;;;;1.43;0.63;;;;;;;18.40;51.18;99625.53;4991621;28;20258;-73
2021/05/16 12:12:25;;;;;;;0.80;0.70;;;;;;;18.59;53.67;99621.50;4979296;28;20567;-73
2021/05/16 12:15:27;;;;;;;0.70;0.63;;;;;;;18.84;51.36;99626.66;5002626;28;20212;-76
2021/05/16 12:18:01;;;;;;;0.70;0.53;;;;;;;18.91;51.79;99624.41;4920324;29;20226;-75
2021/05/16 12:20:42;;;;;;;0.97;0.67;;;;;;;18.97;51.84;99621.25;4929607;28;20228;-73
2021/05/16 12:23:28;;;;;;;1.47;0.60;;;;;;;18.97;50.04;99618.63;5002746;28;20197;-73
2021/05/16 12:26:01;;;;;;;1.13;0.80;;;;;;;18.79;50.24;99618.22;5003667;28;20236;-73
2021/05/16 12:28:54;;;;;;;1.27;0.70;;;;;;;18.71;49.43;99612.66;5003149;28;20275;-73
2021/05/16 12:31:28;;;;;;;1.37;0.60;;;;;;;18.45;47.85;99612.84;5018212;28;20216;-75
2021/05/16 12:34:04;;;;;;;1.83;0.70;;;;;;;18.18;49.68;99615.72;4990947;28;20275;-74
2021/05/16 12:36:56;;;;;;;1.47;0.97;;;;;;;17.81;48.13;99612.28;5011412;28;20214;-72
2021/05/16 12:39:41;;;;;;;1.47;0.60;;;;;;;17.98;52.32;99611.94;5007891;28;20604;-72
2021/05/16 12:42:31;;;;;;;2.70;0.90;;;;;;;17.89;47.28;99612.63;5007435;28;20238;-76
2021/05/16 12:45:26;;;;;;;0.60;0.60;;;;;;;17.53;50.19;99604.53;5007561;28;20459;-74
2021/05/16 12:48:13;;;;;;;1.73;0.60;;;;;;;17.35;49.49;99608.50;5006907;28;20627;-73